Carnival Splendor — 3EUS — position and weather

sailwx.info

Track history (hours):
 
Tides and Currents Weather Stations Pressure Air Temp Water Temp Dewpoint Dewpoint Depression Visibility Wind Speed Wind Dir Waves Ship Positions

Carnival Splendor

Last reported at 2017-Apr-24 09:00 UTC. Time now 2017-Apr-26 02:11 UTC.
Position N 22°36' W 078°24'.

Length 289 m; draft 8.3 m.

Type: Ship. MMSI: 372808000.

Wind from 240 at 15 knots

Barometer 1009.0 mb
Air temperature 25.0 ° C
Visibility: greater than 10.8 NM
Dewpoint 20.5 ° C
Water temperature 26.0 ° C

Date/timePositionNaut miles runAvg speedWind from/ knotsBaromVisibWave heightAir tempDewpointWater temp
2017-Apr-24 09:00N 22°36' W 078°24'18218.6 240 / 151009.010.8 25.020.526.0
2017-Apr-23 23:15N 25°20' W 079°49'416.5
2017-Apr-23 23:00N 25°24' W 079°51'816.0
2017-Apr-23 22:31N 25°31' W 079°54'815.6
2017-Apr-23 22:00N 25°39' W 079°57'714.9
2017-Apr-23 21:30N 25°45' W 080°01'510.5
2017-Apr-23 21:00N 25°45' W 080°07'3 5.8
2017-Apr-23 20:30N 25°47' W 080°10'0 0.0
2017-Apr-23 20:00N 25°47' W 080°10'0 0.0
2017-Apr-23 19:30N 25°47' W 080°10'0 0.0
2017-Apr-23 18:59N 25°47' W 080°10'0 0.0
2017-Apr-23 18:29N 25°47' W 080°10'0 0.0
2017-Apr-23 17:59N 25°47' W 080°10'0 0.0
2017-Apr-23 17:29N 25°47' W 080°10'0 0.0
2017-Apr-23 16:58N 25°47' W 080°10'0 0.0
2017-Apr-23 16:28N 25°47' W 080°10'0 0.0
2017-Apr-23 15:58N 25°47' W 080°10'0 0.0
2017-Apr-23 15:28N 25°47' W 080°10'0 0.0
2017-Apr-23 14:55N 25°47' W 080°10'0 0.0
2017-Apr-23 14:00N 25°47' W 080°10'0 0.0
2017-Apr-23 13:27N 25°47' W 080°10'0 0.0
2017-Apr-23 13:00N 25°47' W 080°10'0 0.0
2017-Apr-23 12:30N 25°47' W 080°10'0 0.0
2017-Apr-23 11:59N 25°47' W 080°10'0 0.0
2017-Apr-23 11:29N 25°47' W 080°10'0 0.0
2017-Apr-23 10:59N 25°47' W 080°10'0 0.0
2017-Apr-23 10:30N 25°47' W 080°10'0 0.0
2017-Apr-23 10:00N 25°47' W 080°10'1 1.4
2017-Apr-23 09:30N 25°47' W 080°11'3 5.1
2017-Apr-23 09:00N 25°46' W 080°08'510.2
2017-Apr-23 08:30N 25°47' W 080°03'3 6.4
2017-Apr-23 08:00N 25°45' W 079°59'612.0
2017-Apr-23 07:30N 25°40' W 079°56'612.4
2017-Apr-23 07:00N 25°34' W 079°54'612.6
2017-Apr-23 06:30N 25°28' W 079°51'612.3
2017-Apr-23 06:00N 25°23' W 079°49'612.0
2017-Apr-23 05:30N 25°16' W 079°48'612.6
2017-Apr-23 05:00N 25°11' W 079°52'27813.9
2017-Apr-22 09:00N 22°48' W 084°12'19818.4 110 / 141015.010.8 25.020.426.0
2017-Apr-21 22:15N 20°39' W 086°54'520.0
2017-Apr-21 22:01N 20°35' W 086°57'612.9
2017-Apr-21 21:31N 20°29' W 086°59'1 1.2
2017-Apr-21 20:58N 20°29' W 086°59'0 0.0
2017-Apr-21 20:30N 20°29' W 086°59'0 0.0
2017-Apr-21 19:58N 20°29' W 086°59'0 0.0
2017-Apr-21 19:30N 20°29' W 086°59'0 0.0
2017-Apr-21 19:00N 20°29' W 086°59'0 0.0
2017-Apr-21 18:30N 20°29' W 086°59'0 0.0
2017-Apr-21 18:00N 20°29' W 086°59'0 0.0
2017-Apr-21 17:29N 20°29' W 086°59'0 0.0
2017-Apr-21 16:59N 20°29' W 086°59'0 0.0
2017-Apr-21 16:29N 20°29' W 086°59'0 0.0
2017-Apr-21 15:59N 20°29' W 086°59'0 0.0
2017-Apr-21 15:29N 20°29' W 086°59'0 0.0
2017-Apr-21 14:58N 20°29' W 086°59'0 0.0
2017-Apr-21 14:28N 20°29' W 086°59'0 0.0
2017-Apr-21 13:28N 20°29' W 086°59'0 0.0
2017-Apr-21 13:00N 20°29' W 086°59'0 0.0
2017-Apr-21 12:30N 20°29' W 086°59'0 0.0
2017-Apr-21 12:00N 20°29' W 086°59'0 0.1
2017-Apr-21 11:30N 20°29' W 086°59'3 5.1
2017-Apr-21 11:00N 20°31' W 086°60'612.2
2017-Apr-21 10:30N 20°26' W 087°04'236 4.8
2017-Apr-19 09:00N 16°48' W 085°30'13222.0 130 / 151013.010.8 26.021.523.0
2017-Apr-19 03:00N 17°54' W 083°30'140 7.8 130 / 201016.010.8 26.019.927.0
2017-Apr-18 09:00N 19°30' W 081°42'9619.1 050 / 251015.010.8 24.021.023.0
2017-Apr-18 04:00N 20°24' W 083°06'19410.2 080 / 151016.010.8 26.018.227.0
2017-Apr-17 09:00N 23°30' W 082°06'10818.0 130 / 161015.010.8 22.018.920.0
2017-Apr-17 03:00N 24°24' W 080°24'6116.9 090 / 251021.010.8 24.015.825.0
2017-Apr-16 23:23N 25°20' W 079°58'615.2
2017-Apr-16 23:00N 25°26' W 079°57'715.1
2017-Apr-16 22:30N 25°33' W 079°57'714.4
2017-Apr-16 22:00N 25°40' W 079°59'713.9
2017-Apr-16 21:30N 25°45' W 080°04'4 8.8
2017-Apr-16 21:00N 25°46' W 080°09'2 3.2
2017-Apr-16 20:31N 25°47' W 080°11'0 0.6
2017-Apr-16 19:58N 25°47' W 080°10'0 0.0
2017-Apr-16 19:28N 25°47' W 080°10'0 0.0
2017-Apr-16 18:58N 25°47' W 080°10'0 0.0
2017-Apr-16 18:28N 25°47' W 080°10'0 0.0
2017-Apr-16 17:54N 25°47' W 080°10'0 0.0
2017-Apr-16 17:30N 25°47' W 080°10'0 0.0
2017-Apr-16 17:00N 25°47' W 080°10'0 0.0
2017-Apr-16 16:27N 25°47' W 080°10'0 0.0
2017-Apr-16 16:00N 25°47' W 080°10'0 0.0
2017-Apr-16 15:29N 25°47' W 080°10'0 0.0
2017-Apr-16 14:59N 25°47' W 080°10'0 0.0
2017-Apr-16 14:29N 25°47' W 080°10'0 0.0
2017-Apr-16 13:28N 25°47' W 080°10'0 0.0
2017-Apr-16 12:58N 25°47' W 080°10'0 0.0
2017-Apr-16 12:28N 25°47' W 080°10'0 0.0
2017-Apr-16 11:59N 25°47' W 080°10'0 0.0
2017-Apr-16 11:30N 25°47' W 080°10'0 0.0
2017-Apr-16 11:00N 25°47' W 080°10'0 0.0
2017-Apr-16 10:30N 25°47' W 080°10'0 0.0
2017-Apr-16 10:00N 25°47' W 080°10'1 2.3
2017-Apr-16 09:30N 25°46' W 080°09'5 9.6
2017-Apr-16 09:00N 25°47' W 080°04'3 5.4
2017-Apr-16 08:30N 25°47' W 080°01'612.8
2017-Apr-16 08:01N 25°51' W 079°55'713.8
2017-Apr-16 07:30N 25°54' W 079°49'713.8
2017-Apr-16 07:00N 25°58' W 079°42'714.2
2017-Apr-16 06:30N 26°02' W 079°35'713.4
2017-Apr-16 06:00N 26°05' W 079°29'713.7
2017-Apr-16 05:30N 26°09' W 079°23'714.1
2017-Apr-16 05:00N 26°12' W 079°16'35017.5
2017-Apr-15 09:00N 23°36' W 073°30'9816.3 070 / 201015.010.8 25.020.423.0
2017-Apr-15 03:00N 22°30' W 072°12'144 8.5 070 / 251018.010.8 24.017.626.0
2017-Apr-14 10:00N 21°06' W 070°06'   250 / 301016.010.8 24.017.626.2
Track history (hours):
 
Tides and Currents Weather Stations Pressure Air Temp Water Temp Dewpoint Dewpoint Depression Visibility Wind Speed Wind Dir Waves Ship Positions

Carnival Splendor

Last reported at 2017-Apr-24 09:00 UTC. Time now 2017-Apr-26 02:11 UTC.
Position N 22°36' W 078°24'.

Length 289 m; draft 8.3 m.

Type: Ship. MMSI: 372808000.

Wind from 240 at 15 knots

Barometer 1009.0 mb
Air temperature 25.0 ° C
Visibility: greater than 10.8 NM
Dewpoint 20.5 ° C
Water temperature 26.0 ° C

Date/timePositionNaut miles runAvg speedWind from/ knotsBaromVisibWave heightAir tempDewpointWater temp
2017-Apr-24 09:00N 22°36' W 078°24'18218.6 240 / 151009.010.8 25.020.526.0
2017-Apr-23 23:15N 25°20' W 079°49'416.5
2017-Apr-23 23:00N 25°24' W 079°51'816.0
2017-Apr-23 22:31N 25°31' W 079°54'815.6
2017-Apr-23 22:00N 25°39' W 079°57'714.9
2017-Apr-23 21:30N 25°45' W 080°01'510.5
2017-Apr-23 21:00N 25°45' W 080°07'3 5.8
2017-Apr-23 20:30N 25°47' W 080°10'0 0.0
2017-Apr-23 20:00N 25°47' W 080°10'0 0.0
2017-Apr-23 19:30N 25°47' W 080°10'0 0.0
2017-Apr-23 18:59N 25°47' W 080°10'0 0.0
2017-Apr-23 18:29N 25°47' W 080°10'0 0.0
2017-Apr-23 17:59N 25°47' W 080°10'0 0.0
2017-Apr-23 17:29N 25°47' W 080°10'0 0.0
2017-Apr-23 16:58N 25°47' W 080°10'0 0.0
2017-Apr-23 16:28N 25°47' W 080°10'0 0.0
2017-Apr-23 15:58N 25°47' W 080°10'0 0.0
2017-Apr-23 15:28N 25°47' W 080°10'0 0.0
2017-Apr-23 14:55N 25°47' W 080°10'0 0.0
2017-Apr-23 14:00N 25°47' W 080°10'0 0.0
2017-Apr-23 13:27N 25°47' W 080°10'0 0.0
2017-Apr-23 13:00N 25°47' W 080°10'0 0.0
2017-Apr-23 12:30N 25°47' W 080°10'0 0.0
2017-Apr-23 11:59N 25°47' W 080°10'0 0.0
2017-Apr-23 11:29N 25°47' W 080°10'0 0.0
2017-Apr-23 10:59N 25°47' W 080°10'0 0.0
2017-Apr-23 10:30N 25°47' W 080°10'0 0.0
2017-Apr-23 10:00N 25°47' W 080°10'1 1.4
2017-Apr-23 09:30N 25°47' W 080°11'3 5.1
2017-Apr-23 09:00N 25°46' W 080°08'510.2
2017-Apr-23 08:30N 25°47' W 080°03'3 6.4
2017-Apr-23 08:00N 25°45' W 079°59'612.0
2017-Apr-23 07:30N 25°40' W 079°56'612.4
2017-Apr-23 07:00N 25°34' W 079°54'612.6
2017-Apr-23 06:30N 25°28' W 079°51'612.3
2017-Apr-23 06:00N 25°23' W 079°49'612.0
2017-Apr-23 05:30N 25°16' W 079°48'612.6
2017-Apr-23 05:00N 25°11' W 079°52'27813.9
2017-Apr-22 09:00N 22°48' W 084°12'19818.4 110 / 141015.010.8 25.020.426.0
2017-Apr-21 22:15N 20°39' W 086°54'520.0
2017-Apr-21 22:01N 20°35' W 086°57'612.9
2017-Apr-21 21:31N 20°29' W 086°59'1 1.2
2017-Apr-21 20:58N 20°29' W 086°59'0 0.0
2017-Apr-21 20:30N 20°29' W 086°59'0 0.0
2017-Apr-21 19:58N 20°29' W 086°59'0 0.0
2017-Apr-21 19:30N 20°29' W 086°59'0 0.0
2017-Apr-21 19:00N 20°29' W 086°59'0 0.0
2017-Apr-21 18:30N 20°29' W 086°59'0 0.0
2017-Apr-21 18:00N 20°29' W 086°59'0 0.0
2017-Apr-21 17:29N 20°29' W 086°59'0 0.0
2017-Apr-21 16:59N 20°29' W 086°59'0 0.0
2017-Apr-21 16:29N 20°29' W 086°59'0 0.0
2017-Apr-21 15:59N 20°29' W 086°59'0 0.0
2017-Apr-21 15:29N 20°29' W 086°59'0 0.0
2017-Apr-21 14:58N 20°29' W 086°59'0 0.0
2017-Apr-21 14:28N 20°29' W 086°59'0 0.0
2017-Apr-21 13:28N 20°29' W 086°59'0 0.0
2017-Apr-21 13:00N 20°29' W 086°59'0 0.0
2017-Apr-21 12:30N 20°29' W 086°59'0 0.0
2017-Apr-21 12:00N 20°29' W 086°59'0 0.1
2017-Apr-21 11:30N 20°29' W 086°59'3 5.1
2017-Apr-21 11:00N 20°31' W 086°60'612.2
2017-Apr-21 10:30N 20°26' W 087°04'236 4.8
2017-Apr-19 09:00N 16°48' W 085°30'13222.0 130 / 151013.010.8 26.021.523.0
2017-Apr-19 03:00N 17°54' W 083°30'140 7.8 130 / 201016.010.8 26.019.927.0
2017-Apr-18 09:00N 19°30' W 081°42'9619.1 050 / 251015.010.8 24.021.023.0
2017-Apr-18 04:00N 20°24' W 083°06'19410.2 080 / 151016.010.8 26.018.227.0
2017-Apr-17 09:00N 23°30' W 082°06'10818.0 130 / 161015.010.8 22.018.920.0
2017-Apr-17 03:00N 24°24' W 080°24'6116.9 090 / 251021.010.8 24.015.825.0
2017-Apr-16 23:23N 25°20' W 079°58'615.2
2017-Apr-16 23:00N 25°26' W 079°57'715.1
2017-Apr-16 22:30N 25°33' W 079°57'714.4
2017-Apr-16 22:00N 25°40' W 079°59'713.9
2017-Apr-16 21:30N 25°45' W 080°04'4 8.8
2017-Apr-16 21:00N 25°46' W 080°09'2 3.2
2017-Apr-16 20:31N 25°47' W 080°11'0 0.6
2017-Apr-16 19:58N 25°47' W 080°10'0 0.0
2017-Apr-16 19:28N 25°47' W 080°10'0 0.0
2017-Apr-16 18:58N 25°47' W 080°10'0 0.0
2017-Apr-16 18:28N 25°47' W 080°10'0 0.0
2017-Apr-16 17:54N 25°47' W 080°10'0 0.0
2017-Apr-16 17:30N 25°47' W 080°10'0 0.0
2017-Apr-16 17:00N 25°47' W 080°10'0 0.0
2017-Apr-16 16:27N 25°47' W 080°10'0 0.0
2017-Apr-16 16:00N 25°47' W 080°10'0 0.0
2017-Apr-16 15:29N 25°47' W 080°10'0 0.0
2017-Apr-16 14:59N 25°47' W 080°10'0 0.0
2017-Apr-16 14:29N 25°47' W 080°10'0 0.0
2017-Apr-16 13:28N 25°47' W 080°10'0 0.0
2017-Apr-16 12:58N 25°47' W 080°10'0 0.0
2017-Apr-16 12:28N 25°47' W 080°10'0 0.0
2017-Apr-16 11:59N 25°47' W 080°10'0 0.0
2017-Apr-16 11:30N 25°47' W 080°10'0 0.0
2017-Apr-16 11:00N 25°47' W 080°10'0 0.0
2017-Apr-16 10:30N 25°47' W 080°10'0 0.0
2017-Apr-16 10:00N 25°47' W 080°10'1 2.3
2017-Apr-16 09:30N 25°46' W 080°09'5 9.6
2017-Apr-16 09:00N 25°47' W 080°04'3 5.4
2017-Apr-16 08:30N 25°47' W 080°01'612.8
2017-Apr-16 08:01N 25°51' W 079°55'713.8
2017-Apr-16 07:30N 25°54' W 079°49'713.8
2017-Apr-16 07:00N 25°58' W 079°42'714.2
2017-Apr-16 06:30N 26°02' W 079°35'713.4
2017-Apr-16 06:00N 26°05' W 079°29'713.7
2017-Apr-16 05:30N 26°09' W 079°23'714.1
2017-Apr-16 05:00N 26°12' W 079°16'35017.5
2017-Apr-15 09:00N 23°36' W 073°30'9816.3 070 / 201015.010.8 25.020.423.0
2017-Apr-15 03:00N 22°30' W 072°12'144 8.5 070 / 251018.010.8 24.017.626.0
2017-Apr-14 10:00N 21°06' W 070°06'   250 / 301016.010.8 24.017.626.2

Dump ship's entire track history